sensor_id;sensor_type;location;lat;lon;timestamp;P1;durP1;ratioP1;P2;durP2;ratioP2
43877;SDS011;29815;48.184;11.268;2022-07-18T00:02:14;5.47;;;3.63;;
43877;SDS011;29815;48.184;11.268;2022-07-18T00:04:44;4.35;;;3.95;;
43877;SDS011;29815;48.184;11.268;2022-07-18T00:07:14;6.72;;;4.25;;
43877;SDS011;29815;48.184;11.268;2022-07-18T00:09:43;5.28;;;4.03;;
43877;SDS011;29815;48.184;11.268;2022-07-18T00:12:14;4.63;;;3.75;;
43877;SDS011;29815;48.184;11.268;2022-07-18T00:14:44;4.80;;;4.35;;
43877;SDS011;29815;48.184;11.268;2022-07-18T00:17:14;4.25;;;3.30;;
43877;SDS011;29815;48.184;11.268;2022-07-18T00:19:43;4.18;;;3.78;;
43877;SDS011;29815;48.184;11.268;2022-07-18T00:22:13;4.53;;;4.13;;
43877;SDS011;29815;48.184;11.268;2022-07-18T00:24:42;5.20;;;3.97;;
43877;SDS011;29815;48.184;11.268;2022-07-18T00:27:12;6.85;;;4.47;;
43877;SDS011;29815;48.184;11.268;2022-07-18T00:29:43;4.30;;;3.88;;
43877;SDS011;29815;48.184;11.268;2022-07-18T00:32:12;5.82;;;4.15;;
43877;SDS011;29815;48.184;11.268;2022-07-18T00:34:42;4.70;;;4.30;;
43877;SDS011;29815;48.184;11.268;2022-07-18T00:37:11;5.35;;;4.60;;
43877;SDS011;29815;48.184;11.268;2022-07-18T00:39:41;4.68;;;4.28;;
43877;SDS011;29815;48.184;11.268;2022-07-18T00:42:10;4.90;;;4.43;;
43877;SDS011;29815;48.184;11.268;2022-07-18T00:44:41;5.47;;;4.10;;
43877;SDS011;29815;48.184;11.268;2022-07-18T00:47:11;6.18;;;4.70;;
43877;SDS011;29815;48.184;11.268;2022-07-18T00:49:41;5.07;;;4.35;;
43877;SDS011;29815;48.184;11.268;2022-07-18T00:52:10;4.57;;;4.15;;
43877;SDS011;29815;48.184;11.268;2022-07-18T00:54:41;5.15;;;4.13;;
43877;SDS011;29815;48.184;11.268;2022-07-18T00:57:11;4.72;;;4.13;;
43877;SDS011;29815;48.184;11.268;2022-07-18T00:59:42;5.72;;;4.43;;
43877;SDS011;29815;48.184;11.268;2022-07-18T01:02:29;5.60;;;4.18;;
43877;SDS011;29815;48.184;11.268;2022-07-18T01:04:59;4.88;;;4.38;;
43877;SDS011;29815;48.184;11.268;2022-07-18T01:07:29;5.28;;;4.45;;
43877;SDS011;29815;48.184;11.268;2022-07-18T01:09:58;4.75;;;4.28;;
43877;SDS011;29815;48.184;11.268;2022-07-18T01:12:28;5.88;;;4.40;;
43877;SDS011;29815;48.184;11.268;2022-07-18T01:14:59;6.28;;;4.70;;
43877;SDS011;29815;48.184;11.268;2022-07-18T01:17:28;4.85;;;4.18;;
43877;SDS011;29815;48.184;11.268;2022-07-18T01:20:02;5.82;;;4.20;;
43877;SDS011;29815;48.184;11.268;2022-07-18T01:22:35;6.43;;;4.90;;
43877;SDS011;29815;48.184;11.268;2022-07-18T01:25:06;4.18;;;3.78;;
43877;SDS011;29815;48.184;11.268;2022-07-18T01:27:38;5.43;;;4.18;;
43877;SDS011;29815;48.184;11.268;2022-07-18T01:30:07;5.22;;;4.00;;
43877;SDS011;29815;48.184;11.268;2022-07-18T01:32:38;7.43;;;4.35;;
43877;SDS011;29815;48.184;11.268;2022-07-18T01:35:08;4.13;;;3.72;;
43877;SDS011;29815;48.184;11.268;2022-07-18T01:37:40;5.35;;;4.60;;
43877;SDS011;29815;48.184;11.268;2022-07-18T01:40:10;5.80;;;4.65;;
43877;SDS011;29815;48.184;11.268;2022-07-18T01:42:40;5.18;;;4.05;;
43877;SDS011;29815;48.184;11.268;2022-07-18T01:45:10;4.13;;;3.72;;
43877;SDS011;29815;48.184;11.268;2022-07-18T01:47:40;5.35;;;4.13;;
43877;SDS011;29815;48.184;11.268;2022-07-18T01:50:10;5.88;;;4.30;;
43877;SDS011;29815;48.184;11.268;2022-07-18T01:52:43;5.00;;;4.50;;
43877;SDS011;29815;48.184;11.268;2022-07-18T01:55:13;4.75;;;4.35;;
43877;SDS011;29815;48.184;11.268;2022-07-18T01:57:42;4.38;;;3.97;;
43877;SDS011;29815;48.184;11.268;2022-07-18T02:00:12;4.82;;;4.43;;
43877;SDS011;29815;48.184;11.268;2022-07-18T02:02:42;5.28;;;4.00;;
43877;SDS011;29815;48.184;11.268;2022-07-18T02:05:12;4.68;;;3.97;;
43877;SDS011;29815;48.184;11.268;2022-07-18T02:07:43;5.47;;;4.32;;
43877;SDS011;29815;48.184;11.268;2022-07-18T02:10:14;5.15;;;4.00;;
43877;SDS011;29815;48.184;11.268;2022-07-18T02:12:48;6.25;;;4.03;;
43877;SDS011;29815;48.184;11.268;2022-07-18T02:15:18;4.93;;;4.05;;
43877;SDS011;29815;48.184;11.268;2022-07-18T02:17:47;4.13;;;3.72;;
43877;SDS011;29815;48.184;11.268;2022-07-18T02:20:17;5.50;;;4.43;;
43877;SDS011;29815;48.184;11.268;2022-07-18T02:22:48;5.05;;;4.45;;
43877;SDS011;29815;48.184;11.268;2022-07-18T02:25:18;5.05;;;4.18;;
43877;SDS011;29815;48.184;11.268;2022-07-18T02:27:47;4.38;;;3.97;;
43877;SDS011;29815;48.184;11.268;2022-07-18T02:30:17;6.32;;;4.53;;
43877;SDS011;29815;48.184;11.268;2022-07-18T02:32:47;4.78;;;4.18;;
43877;SDS011;29815;48.184;11.268;2022-07-18T02:35:17;5.68;;;3.72;;
43877;SDS011;29815;48.184;11.268;2022-07-18T02:37:46;4.38;;;3.97;;
43877;SDS011;29815;48.184;11.268;2022-07-18T02:40:17;4.30;;;3.80;;
43877;SDS011;29815;48.184;11.268;2022-07-18T02:42:47;5.25;;;3.85;;
43877;SDS011;29815;48.184;11.268;2022-07-18T02:45:16;4.30;;;3.88;;
43877;SDS011;29815;48.184;11.268;2022-07-18T02:47:46;4.75;;;4.25;;
43877;SDS011;29815;48.184;11.268;2022-07-18T02:50:16;4.63;;;3.53;;
43877;SDS011;29815;48.184;11.268;2022-07-18T02:52:46;4.53;;;3.70;;
43877;SDS011;29815;48.184;11.268;2022-07-18T02:55:17;6.13;;;4.05;;
43877;SDS011;29815;48.184;11.268;2022-07-18T02:57:48;3.93;;;3.53;;
43877;SDS011;29815;48.184;11.268;2022-07-18T03:00:18;5.88;;;3.78;;
43877;SDS011;29815;48.184;11.268;2022-07-18T03:02:48;5.85;;;3.78;;
43877;SDS011;29815;48.184;11.268;2022-07-18T03:05:17;4.53;;;4.13;;
43877;SDS011;29815;48.184;11.268;2022-07-18T03:07:47;4.53;;;3.70;;
43877;SDS011;29815;48.184;11.268;2022-07-18T03:10:18;6.22;;;4.43;;
43877;SDS011;29815;48.184;11.268;2022-07-18T03:12:48;4.45;;;4.05;;
43877;SDS011;29815;48.184;11.268;2022-07-18T03:15:17;4.65;;;4.20;;
43877;SDS011;29815;48.184;11.268;2022-07-18T03:17:47;4.85;;;4.15;;
43877;SDS011;29815;48.184;11.268;2022-07-18T03:20:17;4.45;;;3.97;;
43877;SDS011;29815;48.184;11.268;2022-07-18T03:22:47;4.18;;;3.80;;
43877;SDS011;29815;48.184;11.268;2022-07-18T03:25:16;5.32;;;4.40;;
43877;SDS011;29815;48.184;11.268;2022-07-18T03:27:50;4.50;;;3.90;;
43877;SDS011;29815;48.184;11.268;2022-07-18T03:30:19;4.30;;;3.90;;
43877;SDS011;29815;48.184;11.268;2022-07-18T03:32:49;6.78;;;3.88;;
43877;SDS011;29815;48.184;11.268;2022-07-18T03:35:19;4.45;;;4.05;;
43877;SDS011;29815;48.184;11.268;2022-07-18T03:37:48;4.28;;;3.88;;
43877;SDS011;29815;48.184;11.268;2022-07-18T03:40:19;6.40;;;4.07;;
43877;SDS011;29815;48.184;11.268;2022-07-18T03:42:49;4.10;;;3.70;;
43877;SDS011;29815;48.184;11.268;2022-07-18T03:45:18;5.40;;;4.90;;
43877;SDS011;29815;48.184;11.268;2022-07-18T03:47:48;5.68;;;4.03;;
43877;SDS011;29815;48.184;11.268;2022-07-18T03:50:18;5.80;;;5.22;;
43877;SDS011;29815;48.184;11.268;2022-07-18T03:52:47;4.60;;;4.13;;
43877;SDS011;29815;48.184;11.268;2022-07-18T03:55:17;6.10;;;4.53;;
43877;SDS011;29815;48.184;11.268;2022-07-18T03:57:49;4.85;;;4.35;;
43877;SDS011;29815;48.184;11.268;2022-07-18T04:00:18;4.88;;;4.38;;
43877;SDS011;29815;48.184;11.268;2022-07-18T04:02:48;7.78;;;4.75;;
43877;SDS011;29815;48.184;11.268;2022-07-18T04:05:17;5.78;;;4.75;;
43877;SDS011;29815;48.184;11.268;2022-07-18T04:07:47;6.18;;;4.57;;
43877;SDS011;29815;48.184;11.268;2022-07-18T04:10:16;4.57;;;4.13;;
43877;SDS011;29815;48.184;11.268;2022-07-18T04:12:48;7.50;;;5.40;;
43877;SDS011;29815;48.184;11.268;2022-07-18T04:15:21;5.25;;;4.75;;
43877;SDS011;29815;48.184;11.268;2022-07-18T04:17:54;5.78;;;5.20;;
43877;SDS011;29815;48.184;11.268;2022-07-18T04:20:23;5.20;;;4.70;;
43877;SDS011;29815;48.184;11.268;2022-07-18T04:22:54;5.70;;;5.20;;
43877;SDS011;29815;48.184;11.268;2022-07-18T04:25:27;6.38;;;5.78;;
43877;SDS011;29815;48.184;11.268;2022-07-18T04:28:04;5.47;;;5.00;;
43877;SDS011;29815;48.184;11.268;2022-07-18T04:30:35;7.82;;;5.70;;
43877;SDS011;29815;48.184;11.268;2022-07-18T04:33:07;5.80;;;4.82;;
43877;SDS011;29815;48.184;11.268;2022-07-18T04:35:38;6.97;;;4.90;;
43877;SDS011;29815;48.184;11.268;2022-07-18T04:38:09;5.07;;;4.57;;
43877;SDS011;29815;48.184;11.268;2022-07-18T04:40:39;5.50;;;4.05;;
43877;SDS011;29815;48.184;11.268;2022-07-18T04:43:10;4.68;;;4.25;;
43877;SDS011;29815;48.184;11.268;2022-07-18T04:45:40;5.00;;;4.35;;
43877;SDS011;29815;48.184;11.268;2022-07-18T04:48:09;5.75;;;4.57;;
43877;SDS011;29815;48.184;11.268;2022-07-18T04:50:39;5.40;;;4.55;;
43877;SDS011;29815;48.184;11.268;2022-07-18T04:53:08;3.50;;;3.20;;
43877;SDS011;29815;48.184;11.268;2022-07-18T04:55:38;6.15;;;4.57;;
43877;SDS011;29815;48.184;11.268;2022-07-18T04:58:09;5.35;;;4.00;;
43877;SDS011;29815;48.184;11.268;2022-07-18T05:00:39;3.95;;;3.55;;
43877;SDS011;29815;48.184;11.268;2022-07-18T05:03:09;5.70;;;4.50;;
43877;SDS011;29815;48.184;11.268;2022-07-18T05:05:39;5.63;;;4.15;;
43877;SDS011;29815;48.184;11.268;2022-07-18T05:08:09;6.88;;;4.28;;
43877;SDS011;29815;48.184;11.268;2022-07-18T05:10:39;6.18;;;5.05;;
43877;SDS011;29815;48.184;11.268;2022-07-18T05:13:14;4.38;;;3.90;;
43877;SDS011;29815;48.184;11.268;2022-07-18T05:15:43;5.22;;;4.45;;
43877;SDS011;29815;48.184;11.268;2022-07-18T05:18:13;5.68;;;5.18;;
43877;SDS011;29815;48.184;11.268;2022-07-18T05:20:43;5.53;;;5.03;;
43877;SDS011;29815;48.184;11.268;2022-07-18T05:23:13;8.13;;;4.72;;
43877;SDS011;29815;48.184;11.268;2022-07-18T05:25:44;5.07;;;4.50;;
43877;SDS011;29815;48.184;11.268;2022-07-18T05:28:15;7.53;;;4.32;;
43877;SDS011;29815;48.184;11.268;2022-07-18T05:30:44;4.18;;;3.75;;
43877;SDS011;29815;48.184;11.268;2022-07-18T05:33:14;5.57;;;4.88;;
43877;SDS011;29815;48.184;11.268;2022-07-18T05:35:44;3.75;;;3.45;;
43877;SDS011;29815;48.184;11.268;2022-07-18T05:38:32;4.65;;;4.18;;
43877;SDS011;29815;48.184;11.268;2022-07-18T05:41:01;5.10;;;4.60;;
43877;SDS011;29815;48.184;11.268;2022-07-18T05:43:32;5.95;;;4.90;;
43877;SDS011;29815;48.184;11.268;2022-07-18T05:46:02;5.00;;;4.50;;
43877;SDS011;29815;48.184;11.268;2022-07-18T05:48:34;5.10;;;4.40;;
43877;SDS011;29815;48.184;11.268;2022-07-18T05:51:04;4.82;;;4.43;;
43877;SDS011;29815;48.184;11.268;2022-07-18T05:53:38;8.07;;;4.90;;
43877;SDS011;29815;48.184;11.268;2022-07-18T05:56:08;5.55;;;5.05;;
43877;SDS011;29815;48.184;11.268;2022-07-18T05:58:40;5.60;;;4.75;;
43877;SDS011;29815;48.184;11.268;2022-07-18T06:01:13;6.97;;;4.13;;
43877;SDS011;29815;48.184;11.268;2022-07-18T06:03:47;5.25;;;4.70;;
43877;SDS011;29815;48.184;11.268;2022-07-18T06:06:17;8.13;;;5.38;;
43877;SDS011;29815;48.184;11.268;2022-07-18T06:08:48;4.53;;;4.07;;
43877;SDS011;29815;48.184;11.268;2022-07-18T06:11:18;4.40;;;4.00;;
43877;SDS011;29815;48.184;11.268;2022-07-18T06:13:48;5.35;;;3.97;;
43877;SDS011;29815;48.184;11.268;2022-07-18T06:16:18;4.90;;;3.70;;
43877;SDS011;29815;48.184;11.268;2022-07-18T06:18:48;5.07;;;4.60;;
43877;SDS011;29815;48.184;11.268;2022-07-18T06:21:18;7.05;;;4.00;;
43877;SDS011;29815;48.184;11.268;2022-07-18T06:23:47;8.80;;;4.35;;
43877;SDS011;29815;48.184;11.268;2022-07-18T06:26:17;5.65;;;4.65;;
43877;SDS011;29815;48.184;11.268;2022-07-18T06:28:48;4.88;;;4.28;;
43877;SDS011;29815;48.184;11.268;2022-07-18T06:31:18;4.35;;;3.70;;
43877;SDS011;29815;48.184;11.268;2022-07-18T06:33:47;4.28;;;3.70;;
43877;SDS011;29815;48.184;11.268;2022-07-18T06:36:17;4.60;;;3.72;;
43877;SDS011;29815;48.184;11.268;2022-07-18T06:38:49;5.55;;;4.35;;
43877;SDS011;29815;48.184;11.268;2022-07-18T06:41:19;5.40;;;4.03;;
43877;SDS011;29815;48.184;11.268;2022-07-18T06:43:50;12.60;;;5.30;;
43877;SDS011;29815;48.184;11.268;2022-07-18T06:46:19;8.65;;;3.92;;
43877;SDS011;29815;48.184;11.268;2022-07-18T06:48:49;6.57;;;4.10;;
43877;SDS011;29815;48.184;11.268;2022-07-18T06:51:18;5.05;;;3.90;;
43877;SDS011;29815;48.184;11.268;2022-07-18T06:53:48;5.25;;;3.80;;
43877;SDS011;29815;48.184;11.268;2022-07-18T06:56:18;5.32;;;3.60;;
43877;SDS011;29815;48.184;11.268;2022-07-18T06:58:49;5.18;;;4.10;;
43877;SDS011;29815;48.184;11.268;2022-07-18T07:01:19;4.32;;;3.38;;
43877;SDS011;29815;48.184;11.268;2022-07-18T07:03:49;6.22;;;3.30;;
43877;SDS011;29815;48.184;11.268;2022-07-18T07:06:19;3.65;;;3.28;;
43877;SDS011;29815;48.184;11.268;2022-07-18T07:08:48;5.05;;;3.53;;
43877;SDS011;29815;48.184;11.268;2022-07-18T07:11:18;4.22;;;3.60;;
43877;SDS011;29815;48.184;11.268;2022-07-18T07:13:51;4.60;;;3.58;;
43877;SDS011;29815;48.184;11.268;2022-07-18T07:16:20;4.82;;;3.05;;
43877;SDS011;29815;48.184;11.268;2022-07-18T07:18:51;6.40;;;3.40;;
43877;SDS011;29815;48.184;11.268;2022-07-18T07:21:20;5.57;;;3.45;;
43877;SDS011;29815;48.184;11.268;2022-07-18T07:23:50;4.50;;;3.47;;
43877;SDS011;29815;48.184;11.268;2022-07-18T07:26:20;5.65;;;3.60;;
43877;SDS011;29815;48.184;11.268;2022-07-18T07:28:51;4.75;;;2.78;;
43877;SDS011;29815;48.184;11.268;2022-07-18T07:31:21;3.05;;;2.47;;
43877;SDS011;29815;48.184;11.268;2022-07-18T07:33:51;3.95;;;2.88;;
43877;SDS011;29815;48.184;11.268;2022-07-18T07:36:20;3.50;;;2.67;;
43877;SDS011;29815;48.184;11.268;2022-07-18T07:38:50;5.32;;;3.45;;
43877;SDS011;29815;48.184;11.268;2022-07-18T07:41:19;5.03;;;2.75;;
43877;SDS011;29815;48.184;11.268;2022-07-18T07:43:51;4.85;;;2.92;;
43877;SDS011;29815;48.184;11.268;2022-07-18T07:46:20;3.00;;;2.58;;
43877;SDS011;29815;48.184;11.268;2022-07-18T07:48:50;3.20;;;2.45;;
43877;SDS011;29815;48.184;11.268;2022-07-18T07:51:19;5.18;;;3.50;;
43877;SDS011;29815;48.184;11.268;2022-07-18T07:53:52;4.07;;;2.97;;
43877;SDS011;29815;48.184;11.268;2022-07-18T07:56:22;4.07;;;2.90;;
43877;SDS011;29815;48.184;11.268;2022-07-18T07:58:53;5.65;;;2.63;;
43877;SDS011;29815;48.184;11.268;2022-07-18T08:01:22;3.15;;;2.85;;
43877;SDS011;29815;48.184;11.268;2022-07-18T08:03:52;4.25;;;2.53;;
43877;SDS011;29815;48.184;11.268;2022-07-18T08:06:22;2.80;;;2.35;;
43877;SDS011;29815;48.184;11.268;2022-07-18T08:08:52;2.92;;;2.53;;
43877;SDS011;29815;48.184;11.268;2022-07-18T08:11:25;4.85;;;2.63;;
43877;SDS011;29815;48.184;11.268;2022-07-18T08:13:56;3.83;;;2.85;;
43877;SDS011;29815;48.184;11.268;2022-07-18T08:16:26;3.72;;;2.85;;
43877;SDS011;29815;48.184;11.268;2022-07-18T08:18:56;3.17;;;2.10;;
43877;SDS011;29815;48.184;11.268;2022-07-18T08:21:25;4.00;;;2.63;;
43877;SDS011;29815;48.184;11.268;2022-07-18T08:23:55;5.28;;;2.15;;
43877;SDS011;29815;48.184;11.268;2022-07-18T08:26:31;3.25;;;2.45;;
43877;SDS011;29815;48.184;11.268;2022-07-18T08:29:04;3.50;;;2.03;;
43877;SDS011;29815;48.184;11.268;2022-07-18T08:31:34;3.43;;;2.23;;
43877;SDS011;29815;48.184;11.268;2022-07-18T08:34:05;3.55;;;2.83;;
43877;SDS011;29815;48.184;11.268;2022-07-18T08:36:34;3.42;;;1.83;;
43877;SDS011;29815;48.184;11.268;2022-07-18T08:39:06;2.87;;;1.87;;
43877;SDS011;29815;48.184;11.268;2022-07-18T08:41:36;2.67;;;2.28;;
43877;SDS011;29815;48.184;11.268;2022-07-18T08:44:10;5.57;;;2.38;;
43877;SDS011;29815;48.184;11.268;2022-07-18T08:49:16;5.05;;;1.40;;
43877;SDS011;29815;48.184;11.268;2022-07-18T08:51:46;3.55;;;1.58;;
43877;SDS011;29815;48.184;11.268;2022-07-18T08:54:16;3.45;;;1.95;;
43877;SDS011;29815;48.184;11.268;2022-07-18T08:56:49;4.93;;;2.00;;
43877;SDS011;29815;48.184;11.268;2022-07-18T08:59:20;5.70;;;2.40;;
43877;SDS011;29815;48.184;11.268;2022-07-18T09:01:50;4.28;;;2.15;;
43877;SDS011;29815;48.184;11.268;2022-07-18T09:04:32;4.60;;;2.30;;
43877;SDS011;29815;48.184;11.268;2022-07-18T09:07:04;3.63;;;2.08;;
43877;SDS011;29815;48.184;11.268;2022-07-18T09:09:36;4.43;;;1.88;;
43877;SDS011;29815;48.184;11.268;2022-07-18T09:12:08;3.40;;;1.90;;
43877;SDS011;29815;48.184;11.268;2022-07-18T09:14:41;3.38;;;1.83;;
43877;SDS011;29815;48.184;11.268;2022-07-18T09:17:13;2.97;;;1.95;;
43877;SDS011;29815;48.184;11.268;2022-07-18T09:19:56;3.55;;;1.60;;
43877;SDS011;29815;48.184;11.268;2022-07-18T09:22:30;3.40;;;1.70;;
43877;SDS011;29815;48.184;11.268;2022-07-18T09:25:05;4.20;;;1.70;;
43877;SDS011;29815;48.184;11.268;2022-07-18T09:27:37;4.10;;;1.60;;
43877;SDS011;29815;48.184;11.268;2022-07-18T09:30:15;3.47;;;1.73;;
43877;SDS011;29815;48.184;11.268;2022-07-18T09:32:54;2.63;;;1.95;;
43877;SDS011;29815;48.184;11.268;2022-07-18T09:35:36;2.60;;;1.58;;
43877;SDS011;29815;48.184;11.268;2022-07-18T09:38:12;4.53;;;2.15;;
43877;SDS011;29815;48.184;11.268;2022-07-18T09:40:45;4.22;;;1.75;;
43877;SDS011;29815;48.184;11.268;2022-07-18T09:45:50;3.28;;;1.80;;
43877;SDS011;29815;48.184;11.268;2022-07-18T09:48:24;2.50;;;1.65;;
43877;SDS011;29815;48.184;11.268;2022-07-18T09:50:56;4.80;;;1.95;;
43877;SDS011;29815;48.184;11.268;2022-07-18T09:53:30;3.42;;;1.70;;
43877;SDS011;29815;48.184;11.268;2022-07-18T09:56:03;2.65;;;1.45;;
43877;SDS011;29815;48.184;11.268;2022-07-18T09:58:36;4.97;;;1.80;;
43877;SDS011;29815;48.184;11.268;2022-07-18T10:01:09;2.60;;;1.58;;
43877;SDS011;29815;48.184;11.268;2022-07-18T10:03:40;3.78;;;1.38;;
43877;SDS011;29815;48.184;11.268;2022-07-18T10:06:10;3.85;;;1.63;;
43877;SDS011;29815;48.184;11.268;2022-07-18T10:08:40;2.22;;;1.55;;
43877;SDS011;29815;48.184;11.268;2022-07-18T10:11:13;4.13;;;1.45;;
43877;SDS011;29815;48.184;11.268;2022-07-18T10:13:43;2.17;;;1.77;;
43877;SDS011;29815;48.184;11.268;2022-07-18T10:16:14;4.40;;;1.67;;
43877;SDS011;29815;48.184;11.268;2022-07-18T10:18:44;3.28;;;1.98;;
43877;SDS011;29815;48.184;11.268;2022-07-18T10:21:14;4.28;;;1.70;;
43877;SDS011;29815;48.184;11.268;2022-07-18T10:23:47;4.78;;;2.28;;
43877;SDS011;29815;48.184;11.268;2022-07-18T10:26:24;3.75;;;2.72;;
43877;SDS011;29815;48.184;11.268;2022-07-18T10:29:14;3.72;;;2.03;;
43877;SDS011;29815;48.184;11.268;2022-07-18T10:32:02;4.75;;;2.20;;
43877;SDS011;29815;48.184;11.268;2022-07-18T10:34:36;5.10;;;2.10;;
43877;SDS011;29815;48.184;11.268;2022-07-18T10:37:07;2.83;;;2.08;;
43877;SDS011;29815;48.184;11.268;2022-07-18T10:39:40;6.60;;;2.05;;
43877;SDS011;29815;48.184;11.268;2022-07-18T10:42:13;3.28;;;1.83;;
43877;SDS011;29815;48.184;11.268;2022-07-18T10:44:46;3.65;;;1.60;;
43877;SDS011;29815;48.184;11.268;2022-07-18T10:47:18;3.35;;;1.55;;
43877;SDS011;29815;48.184;11.268;2022-07-18T10:50:00;4.15;;;1.83;;
43877;SDS011;29815;48.184;11.268;2022-07-18T10:52:57;4.32;;;1.65;;
43877;SDS011;29815;48.184;11.268;2022-07-18T10:55:37;3.38;;;2.05;;
43877;SDS011;29815;48.184;11.268;2022-07-18T10:58:16;3.85;;;1.77;;
43877;SDS011;29815;48.184;11.268;2022-07-18T11:00:52;4.75;;;1.60;;
43877;SDS011;29815;48.184;11.268;2022-07-18T11:03:30;2.30;;;1.42;;
43877;SDS011;29815;48.184;11.268;2022-07-18T11:05:59;3.30;;;1.70;;
43877;SDS011;29815;48.184;11.268;2022-07-18T11:08:30;5.20;;;2.35;;
43877;SDS011;29815;48.184;11.268;2022-07-18T11:11:07;2.53;;;1.93;;
43877;SDS011;29815;48.184;11.268;2022-07-18T11:13:44;4.40;;;1.92;;
43877;SDS011;29815;48.184;11.268;2022-07-18T11:16:19;3.70;;;1.70;;
43877;SDS011;29815;48.184;11.268;2022-07-18T11:21:56;4.18;;;2.03;;
43877;SDS011;29815;48.184;11.268;2022-07-18T11:24:27;1.90;;;1.30;;
43877;SDS011;29815;48.184;11.268;2022-07-18T11:26:57;2.85;;;2.15;;
43877;SDS011;29815;48.184;11.268;2022-07-18T11:29:26;3.03;;;1.58;;
43877;SDS011;29815;48.184;11.268;2022-07-18T11:31:57;3.17;;;1.73;;
43877;SDS011;29815;48.184;11.268;2022-07-18T11:34:28;2.47;;;1.52;;
43877;SDS011;29815;48.184;11.268;2022-07-18T11:37:14;3.05;;;1.40;;
43877;SDS011;29815;48.184;11.268;2022-07-18T11:39:44;2.83;;;1.95;;
43877;SDS011;29815;48.184;11.268;2022-07-18T11:42:14;4.20;;;1.50;;
43877;SDS011;29815;48.184;11.268;2022-07-18T11:47:26;1.92;;;1.40;;
43877;SDS011;29815;48.184;11.268;2022-07-18T11:49:57;2.70;;;1.35;;
43877;SDS011;29815;48.184;11.268;2022-07-18T11:52:28;3.03;;;1.50;;
43877;SDS011;29815;48.184;11.268;2022-07-18T11:57:31;3.40;;;1.55;;
43877;SDS011;29815;48.184;11.268;2022-07-18T12:00:13;2.60;;;1.60;;
43877;SDS011;29815;48.184;11.268;2022-07-18T12:03:07;5.35;;;1.60;;
43877;SDS011;29815;48.184;11.268;2022-07-18T12:05:43;2.08;;;1.20;;
43877;SDS011;29815;48.184;11.268;2022-07-18T12:08:30;8.70;;;1.48;;
43877;SDS011;29815;48.184;11.268;2022-07-18T12:11:09;3.42;;;1.52;;
43877;SDS011;29815;48.184;11.268;2022-07-18T12:13:48;3.30;;;1.77;;
43877;SDS011;29815;48.184;11.268;2022-07-18T12:16:32;3.72;;;1.48;;
43877;SDS011;29815;48.184;11.268;2022-07-18T12:19:06;2.00;;;1.50;;
43877;SDS011;29815;48.184;11.268;2022-07-18T12:21:50;6.97;;;1.70;;
43877;SDS011;29815;48.184;11.268;2022-07-18T12:24:29;4.70;;;1.83;;
43877;SDS011;29815;48.184;11.268;2022-07-18T12:30:10;3.40;;;1.25;;
43877;SDS011;29815;48.184;11.268;2022-07-18T12:32:43;4.50;;;1.65;;
43877;SDS011;29815;48.184;11.268;2022-07-18T12:35:19;2.30;;;1.42;;
43877;SDS011;29815;48.184;11.268;2022-07-18T12:37:54;2.97;;;1.40;;
43877;SDS011;29815;48.184;11.268;2022-07-18T12:40:37;4.20;;;2.03;;
43877;SDS011;29815;48.184;11.268;2022-07-18T12:43:12;2.53;;;1.38;;
43877;SDS011;29815;48.184;11.268;2022-07-18T12:45:44;1.98;;;1.23;;
43877;SDS011;29815;48.184;11.268;2022-07-18T12:48:14;5.72;;;1.80;;
43877;SDS011;29815;48.184;11.268;2022-07-18T12:50:44;2.80;;;1.50;;
43877;SDS011;29815;48.184;11.268;2022-07-18T12:53:15;3.05;;;1.48;;
43877;SDS011;29815;48.184;11.268;2022-07-18T12:55:49;3.72;;;1.58;;
43877;SDS011;29815;48.184;11.268;2022-07-18T12:58:19;4.72;;;1.70;;
43877;SDS011;29815;48.184;11.268;2022-07-18T13:00:48;3.75;;;1.77;;
43877;SDS011;29815;48.184;11.268;2022-07-18T13:03:19;3.38;;;1.70;;
43877;SDS011;29815;48.184;11.268;2022-07-18T13:05:48;10.15;;;1.65;;
43877;SDS011;29815;48.184;11.268;2022-07-18T13:08:20;4.20;;;1.88;;
43877;SDS011;29815;48.184;11.268;2022-07-18T13:10:51;2.90;;;1.33;;
43877;SDS011;29815;48.184;11.268;2022-07-18T13:13:20;2.50;;;1.25;;
43877;SDS011;29815;48.184;11.268;2022-07-18T13:15:50;2.47;;;1.42;;
43877;SDS011;29815;48.184;11.268;2022-07-18T13:18:20;2.75;;;1.20;;
43877;SDS011;29815;48.184;11.268;2022-07-18T13:20:50;4.22;;;1.38;;
43877;SDS011;29815;48.184;11.268;2022-07-18T13:23:21;5.13;;;1.48;;
43877;SDS011;29815;48.184;11.268;2022-07-18T13:25:52;2.15;;;1.25;;
43877;SDS011;29815;48.184;11.268;2022-07-18T13:28:22;2.05;;;1.33;;
43877;SDS011;29815;48.184;11.268;2022-07-18T13:30:53;2.28;;;1.30;;
43877;SDS011;29815;48.184;11.268;2022-07-18T13:33:25;3.58;;;1.20;;
43877;SDS011;29815;48.184;11.268;2022-07-18T13:35:56;2.85;;;1.27;;
43877;SDS011;29815;48.184;11.268;2022-07-18T13:38:27;5.30;;;1.08;;
43877;SDS011;29815;48.184;11.268;2022-07-18T13:40:57;2.00;;;1.58;;
43877;SDS011;29815;48.184;11.268;2022-07-18T13:43:27;5.20;;;1.42;;
43877;SDS011;29815;48.184;11.268;2022-07-18T13:45:56;5.68;;;1.25;;
43877;SDS011;29815;48.184;11.268;2022-07-18T13:48:33;2.88;;;1.50;;
43877;SDS011;29815;48.184;11.268;2022-07-18T13:51:03;2.78;;;1.40;;
43877;SDS011;29815;48.184;11.268;2022-07-18T13:53:36;2.17;;;1.48;;
43877;SDS011;29815;48.184;11.268;2022-07-18T13:56:05;1.58;;;1.23;;
43877;SDS011;29815;48.184;11.268;2022-07-18T13:58:35;3.75;;;1.48;;
43877;SDS011;29815;48.184;11.268;2022-07-18T14:01:06;2.75;;;1.40;;
43877;SDS011;29815;48.184;11.268;2022-07-18T14:03:36;2.53;;;1.45;;
43877;SDS011;29815;48.184;11.268;2022-07-18T14:06:06;2.10;;;1.20;;
43877;SDS011;29815;48.184;11.268;2022-07-18T14:08:37;3.90;;;1.70;;
43877;SDS011;29815;48.184;11.268;2022-07-18T14:11:07;4.00;;;1.38;;
43877;SDS011;29815;48.184;11.268;2022-07-18T14:13:37;2.65;;;1.40;;
43877;SDS011;29815;48.184;11.268;2022-07-18T14:16:06;2.15;;;1.30;;
43877;SDS011;29815;48.184;11.268;2022-07-18T14:18:36;3.90;;;1.25;;
43877;SDS011;29815;48.184;11.268;2022-07-18T14:21:06;3.15;;;1.20;;
43877;SDS011;29815;48.184;11.268;2022-07-18T14:23:45;3.90;;;1.30;;
43877;SDS011;29815;48.184;11.268;2022-07-18T14:26:15;1.65;;;1.42;;
43877;SDS011;29815;48.184;11.268;2022-07-18T14:28:44;4.68;;;1.27;;
43877;SDS011;29815;48.184;11.268;2022-07-18T14:31:14;1.90;;;1.23;;
43877;SDS011;29815;48.184;11.268;2022-07-18T14:33:44;4.90;;;1.60;;
43877;SDS011;29815;48.184;11.268;2022-07-18T14:36:15;2.33;;;1.33;;
43877;SDS011;29815;48.184;11.268;2022-07-18T14:38:47;6.32;;;1.27;;
43877;SDS011;29815;48.184;11.268;2022-07-18T14:41:17;2.65;;;1.30;;
43877;SDS011;29815;48.184;11.268;2022-07-18T14:43:46;1.85;;;1.17;;
43877;SDS011;29815;48.184;11.268;2022-07-18T14:46:16;2.38;;;1.00;;
43877;SDS011;29815;48.184;11.268;2022-07-18T14:48:46;3.75;;;1.30;;
43877;SDS011;29815;48.184;11.268;2022-07-18T14:51:19;2.90;;;1.25;;
43877;SDS011;29815;48.184;11.268;2022-07-18T14:53:50;5.60;;;1.40;;
43877;SDS011;29815;48.184;11.268;2022-07-18T14:56:19;2.58;;;1.35;;
43877;SDS011;29815;48.184;11.268;2022-07-18T14:58:50;1.67;;;1.30;;
43877;SDS011;29815;48.184;11.268;2022-07-18T15:01:19;1.80;;;1.40;;
43877;SDS011;29815;48.184;11.268;2022-07-18T15:03:49;2.42;;;1.50;;
43877;SDS011;29815;48.184;11.268;2022-07-18T15:06:24;3.10;;;1.92;;
43877;SDS011;29815;48.184;11.268;2022-07-18T15:08:56;2.67;;;1.05;;
43877;SDS011;29815;48.184;11.268;2022-07-18T15:11:25;3.60;;;1.38;;
43877;SDS011;29815;48.184;11.268;2022-07-18T15:13:55;2.53;;;1.25;;
43877;SDS011;29815;48.184;11.268;2022-07-18T15:16:25;5.22;;;1.40;;